sensor_id;sensor_type;location;lat;lon;timestamp;pressure;altitude;pressure_sealevel;temperature;humidity
11190;BME280;5651;50.926;4.718;2023-03-25T00:01:30;100246.19;;;9.57;98.10
11190;BME280;5651;50.926;4.718;2023-03-25T00:04:01;100243.56;;;9.59;97.89
11190;BME280;5651;50.926;4.718;2023-03-25T00:06:30;100240.94;;;9.62;97.60
11190;BME280;5651;50.926;4.718;2023-03-25T00:08:59;100246.16;;;9.62;97.81
11190;BME280;5651;50.926;4.718;2023-03-25T00:11:25;100250.44;;;9.64;97.25
11190;BME280;5651;50.926;4.718;2023-03-25T00:13:53;100247.91;;;9.58;97.67
11190;BME280;5651;50.926;4.718;2023-03-25T00:16:19;100242.75;;;9.54;97.46
11190;BME280;5651;50.926;4.718;2023-03-25T00:18:45;100253.16;;;9.54;97.74
11190;BME280;5651;50.926;4.718;2023-03-25T00:21:12;100254.00;;;9.57;97.78
11190;BME280;5651;50.926;4.718;2023-03-25T00:23:40;100247.09;;;9.53;97.68
11190;BME280;5651;50.926;4.718;2023-03-25T00:26:06;100245.31;;;9.57;98.31
11190;BME280;5651;50.926;4.718;2023-03-25T00:28:34;100257.41;;;9.59;98.48
11190;BME280;5651;50.926;4.718;2023-03-25T00:31:03;100251.38;;;9.59;98.79
11190;BME280;5651;50.926;4.718;2023-03-25T00:33:29;100246.13;;;9.63;98.10
11190;BME280;5651;50.926;4.718;2023-03-25T00:35:56;100237.47;;;9.61;98.08
11190;BME280;5651;50.926;4.718;2023-03-25T00:38:27;100260.09;;;9.55;98.36
11190;BME280;5651;50.926;4.718;2023-03-25T00:41:07;100243.53;;;9.60;97.80
11190;BME280;5651;50.926;4.718;2023-03-25T00:43:33;100248.81;;;9.54;98.58
11190;BME280;5651;50.926;4.718;2023-03-25T00:45:59;100269.72;;;9.46;99.15
11190;BME280;5651;50.926;4.718;2023-03-25T00:48:25;100253.16;;;9.52;98.27
11190;BME280;5651;50.926;4.718;2023-03-25T00:50:52;100253.19;;;9.50;98.24
11190;BME280;5651;50.926;4.718;2023-03-25T00:53:18;100248.84;;;9.49;97.70
11190;BME280;5651;50.926;4.718;2023-03-25T00:55:56;100260.19;;;9.45;97.93
11190;BME280;5651;50.926;4.718;2023-03-25T00:58:22;100257.47;;;9.56;97.71
11190;BME280;5651;50.926;4.718;2023-03-25T01:00:48;100247.97;;;9.50;97.27
11190;BME280;5651;50.926;4.718;2023-03-25T01:03:14;100256.78;;;9.40;98.02
11190;BME280;5651;50.926;4.718;2023-03-25T01:05:40;100260.16;;;9.47;97.30
11190;BME280;5651;50.926;4.718;2023-03-25T01:08:06;100250.59;;;9.50;97.15
11190;BME280;5651;50.926;4.718;2023-03-25T01:10:36;100251.44;;;9.52;97.42
11190;BME280;5651;50.926;4.718;2023-03-25T01:13:02;100252.25;;;9.56;96.77
11190;BME280;5651;50.926;4.718;2023-03-25T01:15:28;100238.38;;;9.57;96.43
11190;BME280;5651;50.926;4.718;2023-03-25T01:17:54;100247.03;;;9.58;96.93
11190;BME280;5651;50.926;4.718;2023-03-25T01:20:19;100254.81;;;9.61;96.95
11190;BME280;5651;50.926;4.718;2023-03-25T01:22:45;100251.34;;;9.60;96.50
11190;BME280;5651;50.926;4.718;2023-03-25T01:25:11;100244.47;;;9.56;96.99
11190;BME280;5651;50.926;4.718;2023-03-25T01:27:37;100245.19;;;9.67;97.75
11190;BME280;5651;50.926;4.718;2023-03-25T01:30:03;100245.22;;;9.66;98.54
11190;BME280;5651;50.926;4.718;2023-03-25T01:32:29;100247.00;;;9.62;98.79
11190;BME280;5651;50.926;4.718;2023-03-25T01:34:55;100247.78;;;9.67;100.00
11190;BME280;5651;50.926;4.718;2023-03-25T01:37:21;100251.28;;;9.65;100.00
11190;BME280;5651;50.926;4.718;2023-03-25T01:39:50;100239.22;;;9.58;100.00
11190;BME280;5651;50.926;4.718;2023-03-25T01:42:16;100236.72;;;9.48;100.00
11190;BME280;5651;50.926;4.718;2023-03-25T01:47:12;100248.84;;;9.52;100.00
11190;BME280;5651;50.926;4.718;2023-03-25T01:49:40;100238.47;;;9.51;100.00
11190;BME280;5651;50.926;4.718;2023-03-25T01:54:39;100242.75;;;9.54;99.41
11190;BME280;5651;50.926;4.718;2023-03-25T01:57:07;100224.59;;;9.49;98.73
11190;BME280;5651;50.926;4.718;2023-03-25T01:59:35;100219.44;;;9.47;99.22
11190;BME280;5651;50.926;4.718;2023-03-25T02:02:02;100230.75;;;9.40;99.78
11190;BME280;5651;50.926;4.718;2023-03-25T02:07:07;100230.72;;;9.43;100.00
11190;BME280;5651;50.926;4.718;2023-03-25T02:09:35;100239.38;;;9.45;100.00
11190;BME280;5651;50.926;4.718;2023-03-25T02:12:02;100235.03;;;9.47;99.45
11190;BME280;5651;50.926;4.718;2023-03-25T02:14:31;100223.78;;;9.45;99.15
11190;BME280;5651;50.926;4.718;2023-03-25T02:20:05;100222.88;;;9.45;98.83
11190;BME280;5651;50.926;4.718;2023-03-25T02:36:33;100215.09;;;9.45;97.42
11190;BME280;5651;50.926;4.718;2023-03-25T02:39:13;100207.31;;;9.43;97.51
11190;BME280;5651;50.926;4.718;2023-03-25T02:41:59;100204.75;;;9.42;97.46
11190;BME280;5651;50.926;4.718;2023-03-25T02:44:34;100216.03;;;9.39;97.41
11190;BME280;5651;50.926;4.718;2023-03-25T02:47:06;100213.44;;;9.39;97.69
11190;BME280;5651;50.926;4.718;2023-03-25T02:49:40;100204.75;;;9.40;97.68
11190;BME280;5651;50.926;4.718;2023-03-25T02:52:11;100210.81;;;9.41;97.32
11190;BME280;5651;50.926;4.718;2023-03-25T02:54:40;100204.75;;;9.40;97.84
11190;BME280;5651;50.926;4.718;2023-03-25T02:57:07;100207.28;;;9.45;96.95
11190;BME280;5651;50.926;4.718;2023-03-25T02:59:35;100206.47;;;9.41;96.82
11190;BME280;5651;50.926;4.718;2023-03-25T03:02:07;100197.81;;;9.41;96.87
11190;BME280;5651;50.926;4.718;2023-03-25T03:04:53;100202.22;;;9.35;97.12
11190;BME280;5651;50.926;4.718;2023-03-25T03:07:24;100209.06;;;9.41;96.66
11190;BME280;5651;50.926;4.718;2023-03-25T03:15:09;100204.72;;;9.43;97.28
11190;BME280;5651;50.926;4.718;2023-03-25T03:20:43;100197.88;;;9.33;98.07
11190;BME280;5651;50.926;4.718;2023-03-25T03:23:42;100197.91;;;9.30;98.31
11190;BME280;5651;50.926;4.718;2023-03-25T03:26:20;100209.19;;;9.29;98.41
11190;BME280;5651;50.926;4.718;2023-03-25T03:28:57;100210.94;;;9.27;98.68
11190;BME280;5651;50.926;4.718;2023-03-25T03:31:34;100194.53;;;9.22;98.49
11190;BME280;5651;50.926;4.718;2023-03-25T03:34:12;100185.88;;;9.23;98.68
11190;BME280;5651;50.926;4.718;2023-03-25T03:36:48;100213.63;;;9.19;99.11
11190;BME280;5651;50.926;4.718;2023-03-25T03:39:24;100200.59;;;9.24;98.64
11190;BME280;5651;50.926;4.718;2023-03-25T03:41:56;100208.38;;;9.24;99.67
11190;BME280;5651;50.926;4.718;2023-03-25T03:44:29;100208.38;;;9.24;100.00
11190;BME280;5651;50.926;4.718;2023-03-25T03:47:00;100201.47;;;9.19;100.00
11190;BME280;5651;50.926;4.718;2023-03-25T03:49:39;100214.47;;;9.19;100.00
11190;BME280;5651;50.926;4.718;2023-03-25T03:52:11;100218.84;;;9.17;100.00
11190;BME280;5651;50.926;4.718;2023-03-25T03:54:44;100215.41;;;9.12;100.00
11190;BME280;5651;50.926;4.718;2023-03-25T03:57:29;100218.94;;;9.05;100.00
11190;BME280;5651;50.926;4.718;2023-03-25T04:00:12;100212.00;;;9.04;100.00
11190;BME280;5651;50.926;4.718;2023-03-25T04:02:50;100209.41;;;9.06;100.00
11190;BME280;5651;50.926;4.718;2023-03-25T04:05:20;100233.69;;;9.01;100.00
11190;BME280;5651;50.926;4.718;2023-03-25T04:07:52;100219.88;;;8.96;100.00
11190;BME280;5651;50.926;4.718;2023-03-25T04:13:07;100226.03;;;8.81;100.00
11190;BME280;5651;50.926;4.718;2023-03-25T04:15:35;100219.94;;;8.90;100.00
11190;BME280;5651;50.926;4.718;2023-03-25T04:18:01;100223.41;;;8.89;100.00
11190;BME280;5651;50.926;4.718;2023-03-25T04:20:31;100223.41;;;8.86;100.00
11190;BME280;5651;50.926;4.718;2023-03-25T04:22:59;100216.53;;;8.82;100.00
11190;BME280;5651;50.926;4.718;2023-03-25T04:25:26;100208.72;;;8.80;100.00
11190;BME280;5651;50.926;4.718;2023-03-25T04:27:52;100209.66;;;8.75;100.00
11190;BME280;5651;50.926;4.718;2023-03-25T04:30:25;100223.53;;;8.72;100.00
11190;BME280;5651;50.926;4.718;2023-03-25T04:32:51;100210.50;;;8.75;100.00
11190;BME280;5651;50.926;4.718;2023-03-25T04:35:18;100233.06;;;8.70;100.00
11190;BME280;5651;50.926;4.718;2023-03-25T04:37:45;100223.53;;;8.70;100.00
11190;BME280;5651;50.926;4.718;2023-03-25T04:40:14;100226.97;;;8.77;100.00
11190;BME280;5651;50.926;4.718;2023-03-25T04:42:46;100230.41;;;8.78;100.00
11190;BME280;5651;50.926;4.718;2023-03-25T04:45:13;100227.81;;;8.76;100.00
11190;BME280;5651;50.926;4.718;2023-03-25T04:47:46;100214.81;;;8.78;100.00
11190;BME280;5651;50.926;4.718;2023-03-25T04:50:24;100222.63;;;8.79;100.00
11190;BME280;5651;50.926;4.718;2023-03-25T04:52:52;100214.78;;;8.85;100.00
11190;BME280;5651;50.926;4.718;2023-03-25T04:55:19;100214.78;;;8.85;100.00
11190;BME280;5651;50.926;4.718;2023-03-25T04:57:46;100224.31;;;8.83;100.00
11190;BME280;5651;50.926;4.718;2023-03-25T05:00:14;100231.19;;;8.87;100.00
11190;BME280;5651;50.926;4.718;2023-03-25T05:02:45;100224.28;;;8.88;100.00
11190;BME280;5651;50.926;4.718;2023-03-25T05:05:16;100218.19;;;8.94;100.00
11190;BME280;5651;50.926;4.718;2023-03-25T05:07:46;100239.88;;;8.88;100.00
11190;BME280;5651;50.926;4.718;2023-03-25T05:10:19;100251.13;;;8.90;100.00
11190;BME280;5651;50.926;4.718;2023-03-25T05:12:45;100230.34;;;8.87;100.00
11190;BME280;5651;50.926;4.718;2023-03-25T05:15:11;100231.19;;;8.87;100.00
11190;BME280;5651;50.926;4.718;2023-03-25T05:17:38;100227.69;;;8.93;100.00
11190;BME280;5651;50.926;4.718;2023-03-25T05:20:05;100212.13;;;8.88;100.00
11190;BME280;5651;50.926;4.718;2023-03-25T05:22:33;100228.53;;;8.95;100.00
11190;BME280;5651;50.926;4.718;2023-03-25T05:24:59;100238.06;;;8.98;100.00
11190;BME280;5651;50.926;4.718;2023-03-25T05:27:29;100243.25;;;9.01;100.00
11190;BME280;5651;50.926;4.718;2023-03-25T05:29:56;100251.88;;;9.01;100.00
11190;BME280;5651;50.926;4.718;2023-03-25T05:32:25;100252.72;;;9.08;100.00
11190;BME280;5651;50.926;4.718;2023-03-25T05:34:55;100255.31;;;9.05;100.00
11190;BME280;5651;50.926;4.718;2023-03-25T05:37:21;100270.06;;;9.03;100.00
11190;BME280;5651;50.926;4.718;2023-03-25T05:39:47;100278.75;;;9.00;100.00
11190;BME280;5651;50.926;4.718;2023-03-25T05:42:13;100277.91;;;8.95;100.00
11190;BME280;5651;50.926;4.718;2023-03-25T05:44:40;100270.97;;;8.96;100.00
11190;BME280;5651;50.926;4.718;2023-03-25T05:47:11;100275.28;;;9.01;100.00
11190;BME280;5651;50.926;4.718;2023-03-25T05:49:38;100259.69;;;9.01;100.00
11190;BME280;5651;50.926;4.718;2023-03-25T05:52:06;100276.16;;;8.99;100.00
11190;BME280;5651;50.926;4.718;2023-03-25T05:54:34;100265.75;;;8.99;100.00
11190;BME280;5651;50.926;4.718;2023-03-25T05:57:04;100273.53;;;9.00;100.00
11190;BME280;5651;50.926;4.718;2023-03-25T05:59:30;100263.16;;;8.99;100.00
11190;BME280;5651;50.926;4.718;2023-03-25T06:01:55;100277.06;;;8.93;100.00
11190;BME280;5651;50.926;4.718;2023-03-25T06:04:21;100276.16;;;8.99;100.00
11190;BME280;5651;50.926;4.718;2023-03-25T06:06:48;100275.38;;;8.89;100.00
11190;BME280;5651;50.926;4.718;2023-03-25T06:09:14;100279.69;;;8.92;100.00
11190;BME280;5651;50.926;4.718;2023-03-25T06:11:40;100278.72;;;9.03;100.00
11190;BME280;5651;50.926;4.718;2023-03-25T06:14:06;100284.88;;;8.95;100.00
11190;BME280;5651;50.926;4.718;2023-03-25T06:16:32;100276.13;;;9.00;100.00
11190;BME280;5651;50.926;4.718;2023-03-25T06:18:58;100285.72;;;8.98;100.00
11190;BME280;5651;50.926;4.718;2023-03-25T06:21:26;100280.44;;;9.09;100.00
11190;BME280;5651;50.926;4.718;2023-03-25T06:23:53;100278.78;;;8.97;100.00
11190;BME280;5651;50.926;4.718;2023-03-25T06:26:21;100283.09;;;8.97;100.00
11190;BME280;5651;50.926;4.718;2023-03-25T06:28:47;100286.56;;;8.96;100.00
11190;BME280;5651;50.926;4.718;2023-03-25T06:31:14;100283.97;;;8.97;100.00
11190;BME280;5651;50.926;4.718;2023-03-25T06:33:46;100298.69;;;8.98;100.00
11190;BME280;5651;50.926;4.718;2023-03-25T06:36:14;100295.13;;;9.09;100.00
11190;BME280;5651;50.926;4.718;2023-03-25T06:38:44;100302.03;;;9.14;100.00
11190;BME280;5651;50.926;4.718;2023-03-25T06:41:10;100295.94;;;9.17;100.00
11190;BME280;5651;50.926;4.718;2023-03-25T06:43:36;100305.41;;;9.26;100.00
11190;BME280;5651;50.926;4.718;2023-03-25T06:46:02;100307.13;;;9.30;100.00
11190;BME280;5651;50.926;4.718;2023-03-25T06:48:28;100315.72;;;9.38;100.00
11190;BME280;5651;50.926;4.718;2023-03-25T06:50:54;100303.56;;;9.39;99.92
11190;BME280;5651;50.926;4.718;2023-03-25T06:53:20;100307.88;;;9.41;99.31
11190;BME280;5651;50.926;4.718;2023-03-25T06:55:46;100306.22;;;9.35;99.51
11190;BME280;5651;50.926;4.718;2023-03-25T06:58:12;100303.59;;;9.37;98.78
11190;BME280;5651;50.926;4.718;2023-03-25T07:00:38;100316.63;;;9.35;99.01
11190;BME280;5651;50.926;4.718;2023-03-25T07:03:04;100311.44;;;9.32;98.54
11190;BME280;5651;50.926;4.718;2023-03-25T07:05:30;100322.66;;;9.36;98.41
11190;BME280;5651;50.926;4.718;2023-03-25T07:07:57;100314.84;;;9.39;98.30
11190;BME280;5651;50.926;4.718;2023-03-25T07:10:23;100320.13;;;9.28;98.80
11190;BME280;5651;50.926;4.718;2023-03-25T07:12:49;100300.13;;;9.38;97.47
11190;BME280;5651;50.926;4.718;2023-03-25T07:15:15;100326.91;;;9.45;97.37
11190;BME280;5651;50.926;4.718;2023-03-25T07:17:41;100317.44;;;9.41;98.14
11190;BME280;5651;50.926;4.718;2023-03-25T07:20:13;100332.06;;;9.52;97.66
11190;BME280;5651;50.926;4.718;2023-03-25T07:22:39;100329.44;;;9.57;97.60
11190;BME280;5651;50.926;4.718;2023-03-25T07:25:06;100327.63;;;9.65;96.89
11190;BME280;5651;50.926;4.718;2023-03-25T07:27:31;100312.88;;;9.64;96.54
11190;BME280;5651;50.926;4.718;2023-03-25T07:29:57;100345.81;;;9.65;96.36
11190;BME280;5651;50.926;4.718;2023-03-25T07:32:23;100327.59;;;9.64;96.83
11190;BME280;5651;50.926;4.718;2023-03-25T07:34:49;100346.66;;;9.67;96.84
11190;BME280;5651;50.926;4.718;2023-03-25T07:37:15;100328.44;;;9.67;96.65
11190;BME280;5651;50.926;4.718;2023-03-25T07:39:41;100341.50;;;9.64;96.85
11190;BME280;5651;50.926;4.718;2023-03-25T07:42:07;100344.81;;;9.80;96.78
11190;BME280;5651;50.926;4.718;2023-03-25T07:44:32;100346.56;;;9.80;96.71
11190;BME280;5651;50.926;4.718;2023-03-25T07:46:58;100332.66;;;9.79;97.19
11190;BME280;5651;50.926;4.718;2023-03-25T07:49:24;100341.25;;;9.91;96.68
11190;BME280;5651;50.926;4.718;2023-03-25T07:51:50;100336.84;;;9.99;96.59
11190;BME280;5651;50.926;4.718;2023-03-25T07:54:16;100341.88;;;10.14;95.77
11190;BME280;5651;50.926;4.718;2023-03-25T07:56:42;100347.09;;;10.11;95.50
11190;BME280;5651;50.926;4.718;2023-03-25T07:59:08;100339.28;;;10.14;94.21
11190;BME280;5651;50.926;4.718;2023-03-25T08:01:35;100337.47;;;10.20;94.91
11190;BME280;5651;50.926;4.718;2023-03-25T08:04:01;100346.13;;;10.22;94.09
11190;BME280;5651;50.926;4.718;2023-03-25T08:06:26;100366.91;;;10.25;93.87
11190;BME280;5651;50.926;4.718;2023-03-25T08:08:52;100361.75;;;10.22;94.50
11190;BME280;5651;50.926;4.718;2023-03-25T08:11:20;100355.56;;;10.30;93.78
11190;BME280;5651;50.926;4.718;2023-03-25T08:13:46;100372.91;;;10.35;93.63
11190;BME280;5651;50.926;4.718;2023-03-25T08:16:13;100348.63;;;10.29;94.10
11190;BME280;5651;50.926;4.718;2023-03-25T08:18:39;100360.78;;;10.27;94.24
11190;BME280;5651;50.926;4.718;2023-03-25T08:21:12;100366.00;;;10.29;94.12
11190;BME280;5651;50.926;4.718;2023-03-25T08:23:38;100368.53;;;10.37;92.65
11190;BME280;5651;50.926;4.718;2023-03-25T08:26:05;100365.94;;;10.37;93.31
11190;BME280;5651;50.926;4.718;2023-03-25T08:28:31;100359.84;;;10.41;93.21
11190;BME280;5651;50.926;4.718;2023-03-25T08:30:58;100365.88;;;10.41;94.81
11190;BME280;5651;50.926;4.718;2023-03-25T08:33:27;100373.56;;;10.55;94.20
11190;BME280;5651;50.926;4.718;2023-03-25T08:36:00;100369.25;;;10.53;94.21
11190;BME280;5651;50.926;4.718;2023-03-25T08:38:27;100357.03;;;10.56;93.69
11190;BME280;5651;50.926;4.718;2023-03-25T08:40:59;100374.44;;;10.51;93.41
11190;BME280;5651;50.926;4.718;2023-03-25T08:43:25;100384.81;;;10.57;93.14
11190;BME280;5651;50.926;4.718;2023-03-25T08:45:51;100371.72;;;10.64;93.31
11190;BME280;5651;50.926;4.718;2023-03-25T08:48:17;100369.13;;;10.64;93.07
11190;BME280;5651;50.926;4.718;2023-03-25T08:50:43;100368.00;;;10.80;93.52
11190;BME280;5651;50.926;4.718;2023-03-25T08:53:09;100365.38;;;10.83;93.27
11190;BME280;5651;50.926;4.718;2023-03-25T08:55:35;100371.28;;;10.96;93.04
11190;BME280;5651;50.926;4.718;2023-03-25T08:58:05;100373.81;;;10.99;91.48
11190;BME280;5651;50.926;4.718;2023-03-25T09:00:34;100346.84;;;11.03;90.93
11190;BME280;5651;50.926;4.718;2023-03-25T09:03:01;100360.56;;;11.15;90.92
11190;BME280;5651;50.926;4.718;2023-03-25T09:05:27;100370.97;;;11.18;90.83
11190;BME280;5651;50.926;4.718;2023-03-25T09:07:53;100371.00;;;11.15;89.95
11190;BME280;5651;50.926;4.718;2023-03-25T09:10:19;100384.84;;;11.20;90.72
11190;BME280;5651;50.926;4.718;2023-03-25T09:12:45;100403.97;;;11.20;91.56
11190;BME280;5651;50.926;4.718;2023-03-25T09:15:11;100393.59;;;11.17;92.30
11190;BME280;5651;50.926;4.718;2023-03-25T09:17:38;100395.31;;;11.17;92.04
11190;BME280;5651;50.926;4.718;2023-03-25T09:20:04;100394.31;;;11.27;90.42
11190;BME280;5651;50.926;4.718;2023-03-25T09:22:34;100394.19;;;11.36;92.04
11190;BME280;5651;50.926;4.718;2023-03-25T09:25:00;100399.22;;;11.47;91.83
11190;BME280;5651;50.926;4.718;2023-03-25T09:27:25;100406.13;;;11.50;89.71
11190;BME280;5651;50.926;4.718;2023-03-25T09:29:51;100396.38;;;11.61;88.81
11190;BME280;5651;50.926;4.718;2023-03-25T09:32:17;100412.03;;;11.61;89.33
11190;BME280;5651;50.926;4.718;2023-03-25T09:34:44;100410.38;;;11.57;87.59
11190;BME280;5651;50.926;4.718;2023-03-25T09:37:10;100412.75;;;11.72;88.57
11190;BME280;5651;50.926;4.718;2023-03-25T09:39:36;100400.09;;;11.46;89.87
11190;BME280;5651;50.926;4.718;2023-03-25T09:44:54;100397.47;;;11.48;93.05
11190;BME280;5651;50.926;4.718;2023-03-25T09:47:24;100401.84;;;11.47;93.12
11190;BME280;5651;50.926;4.718;2023-03-25T09:49:56;100412.41;;;11.38;92.40
11190;BME280;5651;50.926;4.718;2023-03-25T09:52:34;100437.75;;;11.30;93.90
11190;BME280;5651;50.926;4.718;2023-03-25T09:55:05;100432.97;;;10.97;98.82
11190;BME280;5651;50.926;4.718;2023-03-25T09:57:39;100424.25;;;11.00;100.00
11190;BME280;5651;50.926;4.718;2023-03-25T10:00:16;100419.19;;;10.86;100.00
11190;BME280;5651;50.926;4.718;2023-03-25T10:03:05;100410.56;;;10.82;100.00
11190;BME280;5651;50.926;4.718;2023-03-25T10:11:06;100404.28;;;10.97;100.00
11190;BME280;5651;50.926;4.718;2023-03-25T10:16:12;100424.75;;;11.25;100.00
11190;BME280;5651;50.926;4.718;2023-03-25T10:18:54;100423.00;;;11.27;100.00
11190;BME280;5651;50.926;4.718;2023-03-25T10:24:16;100439.44;;;11.32;96.47
11190;BME280;5651;50.926;4.718;2023-03-25T10:29:36;100428.91;;;11.40;96.12
11190;BME280;5651;50.926;4.718;2023-03-25T10:32:15;100433.09;;;11.50;96.68
11190;BME280;5651;50.926;4.718;2023-03-25T10:34:47;100437.44;;;11.48;96.80
11190;BME280;5651;50.926;4.718;2023-03-25T10:37:33;100438.34;;;11.49;97.34
11190;BME280;5651;50.926;4.718;2023-03-25T10:40:32;100421.94;;;11.40;96.98
11190;BME280;5651;50.926;4.718;2023-03-25T10:43:25;100393.09;;;11.50;96.26
11190;BME280;5651;50.926;4.718;2023-03-25T10:46:02;100373.97;;;11.48;96.35
11190;BME280;5651;50.926;4.718;2023-03-25T10:48:31;100407.63;;;11.65;96.98
11190;BME280;5651;50.926;4.718;2023-03-25T10:51:03;100403.81;;;11.86;94.74
11190;BME280;5651;50.926;4.718;2023-03-25T10:53:32;100420.91;;;12.05;94.88
11190;BME280;5651;50.926;4.718;2023-03-25T10:56:03;100413.81;;;12.12;88.88
11190;BME280;5651;50.926;4.718;2023-03-25T10:58:30;100378.03;;;12.19;86.71
11190;BME280;5651;50.926;4.718;2023-03-25T11:00:58;100379.41;;;12.35;87.46
11190;BME280;5651;50.926;4.718;2023-03-25T11:03:30;100400.16;;;12.45;84.20
11190;BME280;5651;50.926;4.718;2023-03-25T11:05:58;100386.06;;;12.52;84.45
11190;BME280;5651;50.926;4.718;2023-03-25T11:08:24;100399.94;;;12.57;79.17
11190;BME280;5651;50.926;4.718;2023-03-25T11:10:51;100401.47;;;12.66;79.00
11190;BME280;5651;50.926;4.718;2023-03-25T11:13:29;100403.69;;;12.86;79.64
11190;BME280;5651;50.926;4.718;2023-03-25T11:16:00;100391.25;;;12.96;78.80
11190;BME280;5651;50.926;4.718;2023-03-25T11:18:34;100406.78;;;13.04;78.07
11190;BME280;5651;50.926;4.718;2023-03-25T11:21:11;100396.06;;;13.14;78.55
11190;BME280;5651;50.926;4.718;2023-03-25T11:23:43;100396.84;;;13.18;78.88
11190;BME280;5651;50.926;4.718;2023-03-25T11:26:23;100431.94;;;13.09;77.23
11190;BME280;5651;50.926;4.718;2023-03-25T11:28:54;100426.94;;;12.98;77.79
11190;BME280;5651;50.926;4.718;2023-03-25T11:31:24;100408.81;;;12.91;78.40
11190;BME280;5651;50.926;4.718;2023-03-25T11:36:39;100411.72;;;12.77;79.46
11190;BME280;5651;50.926;4.718;2023-03-25T11:41:51;100418.97;;;12.62;77.93
11190;BME280;5651;50.926;4.718;2023-03-25T11:44:30;100410.59;;;12.45;81.09
11190;BME280;5651;50.926;4.718;2023-03-25T11:47:00;100445.44;;;12.45;81.81
11190;BME280;5651;50.926;4.718;2023-03-25T11:49:28;100463.44;;;12.12;84.61
11190;BME280;5651;50.926;4.718;2023-03-25T11:52:02;100456.38;;;11.64;89.54
11190;BME280;5651;50.926;4.718;2023-03-25T11:54:29;100451.75;;;11.80;90.37
11190;BME280;5651;50.926;4.718;2023-03-25T11:56:57;100462.66;;;11.51;91.53
11190;BME280;5651;50.926;4.718;2023-03-25T11:59:25;100483.72;;;11.37;92.01
11190;BME280;5651;50.926;4.718;2023-03-25T12:02:02;100472.78;;;11.08;93.33
11190;BME280;5651;50.926;4.718;2023-03-25T12:04:29;100486.88;;;10.95;95.90
11190;BME280;5651;50.926;4.718;2023-03-25T12:06:59;100474.75;;;10.91;99.93
11190;BME280;5651;50.926;4.718;2023-03-25T12:09:27;100456.50;;;10.89;98.35
11190;BME280;5651;50.926;4.718;2023-03-25T12:11:56;100454.00;;;10.83;100.00
11190;BME280;5651;50.926;4.718;2023-03-25T12:14:48;100447.97;;;10.76;100.00
11190;BME280;5651;50.926;4.718;2023-03-25T12:33:37;100450.09;;;11.76;97.01
11190;BME280;5651;50.926;4.718;2023-03-25T12:41:52;100450.28;;;12.65;93.90
11190;BME280;5651;50.926;4.718;2023-03-25T12:44:36;100463.44;;;13.05;91.71
11190;BME280;5651;50.926;4.718;2023-03-25T12:47:23;100416.53;;;13.36;87.62
11190;BME280;5651;50.926;4.718;2023-03-25T12:50:05;100443.44;;;14.15;88.66
11190;BME280;5651;50.926;4.718;2023-03-25T12:52:45;100448.91;;;14.40;82.64
11190;BME280;5651;50.926;4.718;2023-03-25T13:11:50;100426.78;;;16.46;73.11
11190;BME280;5651;50.926;4.718;2023-03-25T13:14:23;100426.53;;;16.53;73.86
11190;BME280;5651;50.926;4.718;2023-03-25T13:16:54;100429.72;;;17.10;71.98
11190;BME280;5651;50.926;4.718;2023-03-25T13:19:31;100441.78;;;16.92;67.79
11190;BME280;5651;50.926;4.718;2023-03-25T13:22:06;100442.94;;;17.75;70.95
11190;BME280;5651;50.926;4.718;2023-03-25T13:24:56;100443.56;;;16.68;66.83
11190;BME280;5651;50.926;4.718;2023-03-25T13:27:24;100451.16;;;16.75;66.63
11190;BME280;5651;50.926;4.718;2023-03-25T13:29:56;100455.06;;;17.13;65.93
11190;BME280;5651;50.926;4.718;2023-03-25T13:32:27;100470.22;;;17.52;67.52
11190;BME280;5651;50.926;4.718;2023-03-25T13:35:07;100443.38;;;17.64;63.37
11190;BME280;5651;50.926;4.718;2023-03-25T13:37:44;100449.47;;;17.66;62.10
11190;BME280;5651;50.926;4.718;2023-03-25T13:40:29;100441.09;;;17.77;62.91
11190;BME280;5651;50.926;4.718;2023-03-25T13:43:06;100446.06;;;18.28;64.29
11190;BME280;5651;50.926;4.718;2023-03-25T13:45:50;100431.16;;;18.06;62.63
11190;BME280;5651;50.926;4.718;2023-03-25T13:48:54;100458.84;;;17.94;62.34
11190;BME280;5651;50.926;4.718;2023-03-25T13:51:23;100445.09;;;17.65;61.81
11190;BME280;5651;50.926;4.718;2023-03-25T13:53:59;100436.34;;;17.65;60.66
11190;BME280;5651;50.926;4.718;2023-03-25T14:10:49;100461.81;;;17.20;57.14
11190;BME280;5651;50.926;4.718;2023-03-25T14:13:25;100444.34;;;17.17;58.49
11190;BME280;5651;50.926;4.718;2023-03-25T14:18:24;100451.09;;;17.69;56.24
11190;BME280;5651;50.926;4.718;2023-03-25T14:20:50;100457.41;;;18.09;54.20
11190;BME280;5651;50.926;4.718;2023-03-25T14:23:18;100450.44;;;18.48;56.58
11190;BME280;5651;50.926;4.718;2023-03-25T14:25:48;100453.28;;;18.64;52.99
11190;BME280;5651;50.926;4.718;2023-03-25T14:28:20;100456.53;;;18.50;53.51
11190;BME280;5651;50.926;4.718;2023-03-25T14:31:16;100464.59;;;18.26;51.07
11190;BME280;5651;50.926;4.718;2023-03-25T14:41:59;100477.41;;;17.02;53.47
11190;BME280;5651;50.926;4.718;2023-03-25T14:44:31;100451.88;;;17.04;53.80
11190;BME280;5651;50.926;4.718;2023-03-25T14:52:37;100451.16;;;16.75;55.80
11190;BME280;5651;50.926;4.718;2023-03-25T14:57:41;100479.09;;;16.29;55.24
11190;BME280;5651;50.926;4.718;2023-03-25T15:00:09;100486.81;;;15.80;58.04
11190;BME280;5651;50.926;4.718;2023-03-25T15:02:50;100507.13;;;15.16;66.77
11190;BME280;5651;50.926;4.718;2023-03-25T15:05:21;100491.81;;;15.02;70.33
11190;BME280;5651;50.926;4.718;2023-03-25T15:13:06;100517.63;;;15.16;71.25
11190;BME280;5651;50.926;4.718;2023-03-25T15:18:09;100488.47;;;14.96;68.74
11190;BME280;5651;50.926;4.718;2023-03-25T15:20:36;100505.25;;;14.90;69.34
11190;BME280;5651;50.926;4.718;2023-03-25T15:25:48;100496.44;;;14.60;68.53
11190;BME280;5651;50.926;4.718;2023-03-25T15:36:27;100514.66;;;13.59;74.37
11190;BME280;5651;50.926;4.718;2023-03-25T15:45:04;100511.19;;;14.31;76.86
11190;BME280;5651;50.926;4.718;2023-03-25T15:47:54;100499.03;;;14.94;76.72
11190;BME280;5651;50.926;4.718;2023-03-25T15:50:31;100503.13;;;15.63;71.87
11190;BME280;5651;50.926;4.718;2023-03-25T15:55:58;100491.16;;;16.09;67.09